sensor_id;sensor_type;location;lat;lon;timestamp;temperature;humidity
1361;DHT22;674;45.552;-122.600;2022-08-21T00:00:37;24.50;1.00
1361;DHT22;674;45.552;-122.600;2022-08-21T00:03:11;24.60;1.00
1361;DHT22;674;45.552;-122.600;2022-08-21T00:05:47;24.60;1.00
1361;DHT22;674;45.552;-122.600;2022-08-21T00:08:20;24.80;1.00
1361;DHT22;674;45.552;-122.600;2022-08-21T00:10:49;24.80;1.00
1361;DHT22;674;45.552;-122.600;2022-08-21T00:13:18;24.90;1.00
1361;DHT22;674;45.552;-122.600;2022-08-21T00:15:48;24.70;1.00
1361;DHT22;674;45.552;-122.600;2022-08-21T00:18:18;24.60;1.00
1361;DHT22;674;45.552;-122.600;2022-08-21T00:20:47;24.80;1.00
1361;DHT22;674;45.552;-122.600;2022-08-21T00:23:16;24.80;1.00
1361;DHT22;674;45.552;-122.600;2022-08-21T00:25:44;24.80;1.00
1361;DHT22;674;45.552;-122.600;2022-08-21T00:28:13;25.00;1.00
1361;DHT22;674;45.552;-122.600;2022-08-21T00:30:43;25.00;1.00
1361;DHT22;674;45.552;-122.600;2022-08-21T00:33:12;25.00;1.00
1361;DHT22;674;45.552;-122.600;2022-08-21T00:35:42;25.00;1.00
1361;DHT22;674;45.552;-122.600;2022-08-21T00:38:11;25.00;1.00
1361;DHT22;674;45.552;-122.600;2022-08-21T00:40:52;24.70;1.00
1361;DHT22;674;45.552;-122.600;2022-08-21T00:43:26;24.70;1.00
1361;DHT22;674;45.552;-122.600;2022-08-21T00:45:56;24.60;1.00
1361;DHT22;674;45.552;-122.600;2022-08-21T00:48:25;24.70;1.00
1361;DHT22;674;45.552;-122.600;2022-08-21T00:51:20;24.80;1.00
1361;DHT22;674;45.552;-122.600;2022-08-21T00:53:56;25.00;1.00
1361;DHT22;674;45.552;-122.600;2022-08-21T00:56:25;25.10;1.00
1361;DHT22;674;45.552;-122.600;2022-08-21T00:58:55;25.10;1.00
1361;DHT22;674;45.552;-122.600;2022-08-21T01:01:24;25.10;1.00
1361;DHT22;674;45.552;-122.600;2022-08-21T01:03:53;25.10;1.00
1361;DHT22;674;45.552;-122.600;2022-08-21T01:06:22;25.00;1.00
1361;DHT22;674;45.552;-122.600;2022-08-21T01:08:50;25.10;1.00
1361;DHT22;674;45.552;-122.600;2022-08-21T01:11:20;25.00;1.00
1361;DHT22;674;45.552;-122.600;2022-08-21T01:13:49;24.90;1.00
1361;DHT22;674;45.552;-122.600;2022-08-21T01:16:21;25.00;1.00
1361;DHT22;674;45.552;-122.600;2022-08-21T01:18:50;25.00;1.00
1361;DHT22;674;45.552;-122.600;2022-08-21T01:21:22;25.20;1.00
1361;DHT22;674;45.552;-122.600;2022-08-21T01:23:56;25.10;1.00
1361;DHT22;674;45.552;-122.600;2022-08-21T01:26:30;24.90;1.00
1361;DHT22;674;45.552;-122.600;2022-08-21T01:29:26;24.80;1.00
1361;DHT22;674;45.552;-122.600;2022-08-21T01:31:55;24.80;1.00
1361;DHT22;674;45.552;-122.600;2022-08-21T01:34:24;24.70;1.00
1361;DHT22;674;45.552;-122.600;2022-08-21T01:36:53;24.80;1.00
1361;DHT22;674;45.552;-122.600;2022-08-21T01:39:21;24.80;1.00
1361;DHT22;674;45.552;-122.600;2022-08-21T01:41:50;24.70;1.00
1361;DHT22;674;45.552;-122.600;2022-08-21T01:44:21;24.60;1.00
1361;DHT22;674;45.552;-122.600;2022-08-21T01:46:50;24.60;1.00
1361;DHT22;674;45.552;-122.600;2022-08-21T01:49:20;24.50;1.00
1361;DHT22;674;45.552;-122.600;2022-08-21T01:51:48;24.30;1.00
1361;DHT22;674;45.552;-122.600;2022-08-21T01:54:17;24.20;1.00
1361;DHT22;674;45.552;-122.600;2022-08-21T01:56:47;24.30;1.00
1361;DHT22;674;45.552;-122.600;2022-08-21T01:59:18;24.20;1.00
1361;DHT22;674;45.552;-122.600;2022-08-21T02:01:46;24.20;1.00
1361;DHT22;674;45.552;-122.600;2022-08-21T02:04:15;24.20;1.00
1361;DHT22;674;45.552;-122.600;2022-08-21T02:06:43;24.10;1.00
1361;DHT22;674;45.552;-122.600;2022-08-21T02:09:12;24.10;1.00
1361;DHT22;674;45.552;-122.600;2022-08-21T02:11:42;24.00;1.00
1361;DHT22;674;45.552;-122.600;2022-08-21T02:14:13;23.90;1.00
1361;DHT22;674;45.552;-122.600;2022-08-21T02:16:58;23.90;1.00
1361;DHT22;674;45.552;-122.600;2022-08-21T02:19:31;23.80;1.00
1361;DHT22;674;45.552;-122.600;2022-08-21T02:22:08;23.80;1.00
1361;DHT22;674;45.552;-122.600;2022-08-21T02:24:38;23.80;1.00
1361;DHT22;674;45.552;-122.600;2022-08-21T02:27:22;23.70;1.00
1361;DHT22;674;45.552;-122.600;2022-08-21T02:29:54;23.80;1.00
1361;DHT22;674;45.552;-122.600;2022-08-21T02:32:23;23.70;1.00
1361;DHT22;674;45.552;-122.600;2022-08-21T02:34:53;23.80;1.00
1361;DHT22;674;45.552;-122.600;2022-08-21T02:37:22;23.80;1.00
1361;DHT22;674;45.552;-122.600;2022-08-21T02:39:51;23.80;1.00
1361;DHT22;674;45.552;-122.600;2022-08-21T02:42:20;23.60;1.00
1361;DHT22;674;45.552;-122.600;2022-08-21T02:44:48;23.70;1.00
1361;DHT22;674;45.552;-122.600;2022-08-21T02:47:17;23.70;1.00
1361;DHT22;674;45.552;-122.600;2022-08-21T02:49:45;23.50;1.00
1361;DHT22;674;45.552;-122.600;2022-08-21T02:52:13;23.40;1.00
1361;DHT22;674;45.552;-122.600;2022-08-21T02:54:42;23.20;1.00
1361;DHT22;674;45.552;-122.600;2022-08-21T02:57:10;23.20;1.00
1361;DHT22;674;45.552;-122.600;2022-08-21T02:59:39;23.10;1.00
1361;DHT22;674;45.552;-122.600;2022-08-21T03:02:08;23.10;1.00
1361;DHT22;674;45.552;-122.600;2022-08-21T03:04:37;22.80;1.00
1361;DHT22;674;45.552;-122.600;2022-08-21T03:07:10;22.80;1.00
1361;DHT22;674;45.552;-122.600;2022-08-21T03:09:39;22.60;1.00
1361;DHT22;674;45.552;-122.600;2022-08-21T03:12:22;22.50;1.00
1361;DHT22;674;45.552;-122.600;2022-08-21T03:14:56;22.40;1.00
1361;DHT22;674;45.552;-122.600;2022-08-21T03:17:25;22.20;1.00
1361;DHT22;674;45.552;-122.600;2022-08-21T03:19:56;22.30;1.00
1361;DHT22;674;45.552;-122.600;2022-08-21T03:22:26;22.10;1.00
1361;DHT22;674;45.552;-122.600;2022-08-21T03:24:57;22.00;1.00
1361;DHT22;674;45.552;-122.600;2022-08-21T03:27:30;22.10;1.00
1361;DHT22;674;45.552;-122.600;2022-08-21T03:30:02;22.00;1.00
1361;DHT22;674;45.552;-122.600;2022-08-21T03:32:31;21.90;1.00
1361;DHT22;674;45.552;-122.600;2022-08-21T03:35:00;21.90;1.00
1361;DHT22;674;45.552;-122.600;2022-08-21T03:37:29;21.90;1.00
1361;DHT22;674;45.552;-122.600;2022-08-21T03:39:58;21.70;1.00
1361;DHT22;674;45.552;-122.600;2022-08-21T03:42:26;21.80;1.00
1361;DHT22;674;45.552;-122.600;2022-08-21T03:44:55;21.80;1.00
1361;DHT22;674;45.552;-122.600;2022-08-21T03:47:23;21.80;1.00
1361;DHT22;674;45.552;-122.600;2022-08-21T03:49:52;21.70;1.00
1361;DHT22;674;45.552;-122.600;2022-08-21T03:52:20;21.70;1.00
1361;DHT22;674;45.552;-122.600;2022-08-21T03:54:49;21.70;1.00
1361;DHT22;674;45.552;-122.600;2022-08-21T03:57:18;21.70;1.00
1361;DHT22;674;45.552;-122.600;2022-08-21T03:59:46;21.70;1.00
1361;DHT22;674;45.552;-122.600;2022-08-21T04:02:17;21.70;1.00
1361;DHT22;674;45.552;-122.600;2022-08-21T04:04:46;21.70;1.00
1361;DHT22;674;45.552;-122.600;2022-08-21T04:07:14;21.70;1.00
1361;DHT22;674;45.552;-122.600;2022-08-21T04:09:44;21.60;1.00
1361;DHT22;674;45.552;-122.600;2022-08-21T04:12:12;21.60;1.00
1361;DHT22;674;45.552;-122.600;2022-08-21T04:14:41;21.50;1.00
1361;DHT22;674;45.552;-122.600;2022-08-21T04:17:09;21.40;1.00
1361;DHT22;674;45.552;-122.600;2022-08-21T04:19:38;21.40;1.00
1361;DHT22;674;45.552;-122.600;2022-08-21T04:22:06;21.30;1.00
1361;DHT22;674;45.552;-122.600;2022-08-21T04:24:35;21.20;1.00
1361;DHT22;674;45.552;-122.600;2022-08-21T04:27:03;21.20;1.00
1361;DHT22;674;45.552;-122.600;2022-08-21T04:29:31;21.10;1.00
1361;DHT22;674;45.552;-122.600;2022-08-21T04:32:06;21.10;1.00
1361;DHT22;674;45.552;-122.600;2022-08-21T04:34:34;21.10;1.00
1361;DHT22;674;45.552;-122.600;2022-08-21T04:37:03;21.00;1.00
1361;DHT22;674;45.552;-122.600;2022-08-21T04:39:31;20.90;1.00
1361;DHT22;674;45.552;-122.600;2022-08-21T04:42:00;20.90;1.00
1361;DHT22;674;45.552;-122.600;2022-08-21T04:44:29;20.90;1.00
1361;DHT22;674;45.552;-122.600;2022-08-21T04:46:57;20.80;1.00
1361;DHT22;674;45.552;-122.600;2022-08-21T04:49:27;20.80;1.00
1361;DHT22;674;45.552;-122.600;2022-08-21T04:51:55;20.70;1.00
1361;DHT22;674;45.552;-122.600;2022-08-21T04:54:24;20.60;1.00
1361;DHT22;674;45.552;-122.600;2022-08-21T04:57:00;20.60;1.00
1361;DHT22;674;45.552;-122.600;2022-08-21T04:59:35;20.50;1.00
1361;DHT22;674;45.552;-122.600;2022-08-21T05:02:05;20.50;1.00
1361;DHT22;674;45.552;-122.600;2022-08-21T05:04:37;20.50;1.00
1361;DHT22;674;45.552;-122.600;2022-08-21T05:07:12;20.50;2.50
1361;DHT22;674;45.552;-122.600;2022-08-21T05:10:03;20.40;7.80
1361;DHT22;674;45.552;-122.600;2022-08-21T05:12:32;20.40;7.00
1361;DHT22;674;45.552;-122.600;2022-08-21T05:15:03;20.30;13.30
1361;DHT22;674;45.552;-122.600;2022-08-21T05:17:32;20.20;16.10
1361;DHT22;674;45.552;-122.600;2022-08-21T05:20:00;20.20;18.90
1361;DHT22;674;45.552;-122.600;2022-08-21T05:22:29;20.10;26.70
1361;DHT22;674;45.552;-122.600;2022-08-21T05:24:58;20.10;26.70
1361;DHT22;674;45.552;-122.600;2022-08-21T05:27:26;20.00;32.00
1361;DHT22;674;45.552;-122.600;2022-08-21T05:29:57;20.00;33.90
1361;DHT22;674;45.552;-122.600;2022-08-21T05:32:26;20.00;36.90
1361;DHT22;674;45.552;-122.600;2022-08-21T05:34:56;20.00;41.70
1361;DHT22;674;45.552;-122.600;2022-08-21T05:37:24;20.00;45.00
1361;DHT22;674;45.552;-122.600;2022-08-21T05:39:53;19.90;56.30
1361;DHT22;674;45.552;-122.600;2022-08-21T05:42:41;19.90;55.60
1361;DHT22;674;45.552;-122.600;2022-08-21T05:45:10;19.80;63.70
1361;DHT22;674;45.552;-122.600;2022-08-21T05:47:39;19.80;68.70
1361;DHT22;674;45.552;-122.600;2022-08-21T05:50:09;19.70;75.80
1361;DHT22;674;45.552;-122.600;2022-08-21T05:52:37;19.70;81.90
1361;DHT22;674;45.552;-122.600;2022-08-21T05:55:06;19.60;81.70
1361;DHT22;674;45.552;-122.600;2022-08-21T05:57:35;19.60;83.80
1361;DHT22;674;45.552;-122.600;2022-08-21T06:00:04;19.50;85.30
1361;DHT22;674;45.552;-122.600;2022-08-21T06:02:33;19.40;86.80
1361;DHT22;674;45.552;-122.600;2022-08-21T06:05:01;19.40;90.00
1361;DHT22;674;45.552;-122.600;2022-08-21T06:07:30;19.30;91.00
1361;DHT22;674;45.552;-122.600;2022-08-21T06:09:58;19.30;91.60
1361;DHT22;674;45.552;-122.600;2022-08-21T06:12:26;19.30;92.20
1361;DHT22;674;45.552;-122.600;2022-08-21T06:14:55;19.30;92.00
1361;DHT22;674;45.552;-122.600;2022-08-21T06:17:23;19.30;93.10
1361;DHT22;674;45.552;-122.600;2022-08-21T06:19:53;19.30;94.10
1361;DHT22;674;45.552;-122.600;2022-08-21T06:22:22;19.20;93.70
1361;DHT22;674;45.552;-122.600;2022-08-21T06:24:50;19.20;94.40
1361;DHT22;674;45.552;-122.600;2022-08-21T06:27:20;19.20;94.00
1361;DHT22;674;45.552;-122.600;2022-08-21T06:29:52;19.20;95.30
1361;DHT22;674;45.552;-122.600;2022-08-21T06:32:21;19.20;93.90
1361;DHT22;674;45.552;-122.600;2022-08-21T06:34:49;19.10;95.40
1361;DHT22;674;45.552;-122.600;2022-08-21T06:37:17;19.10;94.80
1361;DHT22;674;45.552;-122.600;2022-08-21T06:39:46;19.10;94.70
1361;DHT22;674;45.552;-122.600;2022-08-21T06:42:16;19.00;95.60
1361;DHT22;674;45.552;-122.600;2022-08-21T06:44:45;19.00;96.10
1361;DHT22;674;45.552;-122.600;2022-08-21T06:47:14;19.10;95.70
1361;DHT22;674;45.552;-122.600;2022-08-21T06:49:43;19.00;95.60
1361;DHT22;674;45.552;-122.600;2022-08-21T06:52:13;19.00;95.80
1361;DHT22;674;45.552;-122.600;2022-08-21T06:54:41;19.00;96.40
1361;DHT22;674;45.552;-122.600;2022-08-21T06:57:10;19.00;97.10
1361;DHT22;674;45.552;-122.600;2022-08-21T06:59:38;19.00;95.50
1361;DHT22;674;45.552;-122.600;2022-08-21T07:02:07;18.90;95.30
1361;DHT22;674;45.552;-122.600;2022-08-21T07:04:35;18.90;96.20
1361;DHT22;674;45.552;-122.600;2022-08-21T07:07:04;18.80;96.80
1361;DHT22;674;45.552;-122.600;2022-08-21T07:09:33;18.80;96.30
1361;DHT22;674;45.552;-122.600;2022-08-21T07:12:02;18.70;97.70
1361;DHT22;674;45.552;-122.600;2022-08-21T07:14:32;18.60;99.90
1361;DHT22;674;45.552;-122.600;2022-08-21T07:17:00;18.60;99.90
1361;DHT22;674;45.552;-122.600;2022-08-21T07:19:30;18.60;99.90
1361;DHT22;674;45.552;-122.600;2022-08-21T07:22:00;18.50;99.90
1361;DHT22;674;45.552;-122.600;2022-08-21T07:24:30;18.50;99.90
1361;DHT22;674;45.552;-122.600;2022-08-21T07:26:58;18.40;99.90
1361;DHT22;674;45.552;-122.600;2022-08-21T07:29:27;18.40;99.90
1361;DHT22;674;45.552;-122.600;2022-08-21T07:31:55;18.40;99.90
1361;DHT22;674;45.552;-122.600;2022-08-21T07:34:23;18.30;99.90
1361;DHT22;674;45.552;-122.600;2022-08-21T07:36:52;18.30;99.90
1361;DHT22;674;45.552;-122.600;2022-08-21T07:39:21;18.30;99.90
1361;DHT22;674;45.552;-122.600;2022-08-21T07:41:49;18.30;99.90
1361;DHT22;674;45.552;-122.600;2022-08-21T07:44:18;18.30;99.90
1361;DHT22;674;45.552;-122.600;2022-08-21T07:46:46;18.20;99.90
1361;DHT22;674;45.552;-122.600;2022-08-21T07:49:15;18.20;99.90
1361;DHT22;674;45.552;-122.600;2022-08-21T07:51:43;18.20;99.90
1361;DHT22;674;45.552;-122.600;2022-08-21T07:54:11;18.20;99.90
1361;DHT22;674;45.552;-122.600;2022-08-21T07:56:43;18.10;99.90
1361;DHT22;674;45.552;-122.600;2022-08-21T07:59:11;18.10;99.90
1361;DHT22;674;45.552;-122.600;2022-08-21T08:01:40;18.10;99.90
1361;DHT22;674;45.552;-122.600;2022-08-21T08:04:09;18.10;99.90
1361;DHT22;674;45.552;-122.600;2022-08-21T08:06:37;18.10;99.90
1361;DHT22;674;45.552;-122.600;2022-08-21T08:09:06;18.10;99.90
1361;DHT22;674;45.552;-122.600;2022-08-21T08:11:35;18.00;99.90
1361;DHT22;674;45.552;-122.600;2022-08-21T08:14:05;18.00;99.90
1361;DHT22;674;45.552;-122.600;2022-08-21T08:16:33;18.00;99.90
1361;DHT22;674;45.552;-122.600;2022-08-21T08:19:02;18.00;99.90
1361;DHT22;674;45.552;-122.600;2022-08-21T08:21:31;18.00;99.90
1361;DHT22;674;45.552;-122.600;2022-08-21T08:24:01;18.00;99.90
1361;DHT22;674;45.552;-122.600;2022-08-21T08:26:46;18.00;99.90
1361;DHT22;674;45.552;-122.600;2022-08-21T08:29:20;18.00;99.90
1361;DHT22;674;45.552;-122.600;2022-08-21T08:31:50;17.80;99.90
1361;DHT22;674;45.552;-122.600;2022-08-21T08:34:18;17.80;99.90
1361;DHT22;674;45.552;-122.600;2022-08-21T08:36:52;17.80;99.90
1361;DHT22;674;45.552;-122.600;2022-08-21T08:39:22;17.70;99.90
1361;DHT22;674;45.552;-122.600;2022-08-21T08:44:31;17.70;99.90
1361;DHT22;674;45.552;-122.600;2022-08-21T08:46:59;17.60;99.90
1361;DHT22;674;45.552;-122.600;2022-08-21T08:49:37;17.50;99.90
1361;DHT22;674;45.552;-122.600;2022-08-21T08:52:23;17.60;99.90
1361;DHT22;674;45.552;-122.600;2022-08-21T08:55:13;17.60;99.90
1361;DHT22;674;45.552;-122.600;2022-08-21T08:57:46;17.50;99.90
1361;DHT22;674;45.552;-122.600;2022-08-21T09:00:19;17.50;99.90
1361;DHT22;674;45.552;-122.600;2022-08-21T09:02:52;17.40;99.90
1361;DHT22;674;45.552;-122.600;2022-08-21T09:05:29;17.50;99.90
1361;DHT22;674;45.552;-122.600;2022-08-21T09:08:15;17.50;99.90
1361;DHT22;674;45.552;-122.600;2022-08-21T09:16:13;17.30;99.90
1361;DHT22;674;45.552;-122.600;2022-08-21T09:24:25;17.30;99.90
1361;DHT22;674;45.552;-122.600;2022-08-21T09:27:12;17.30;99.90
1361;DHT22;674;45.552;-122.600;2022-08-21T09:29:46;17.20;99.90
1361;DHT22;674;45.552;-122.600;2022-08-21T09:32:18;17.20;99.90
1361;DHT22;674;45.552;-122.600;2022-08-21T09:35:12;17.10;99.90
1361;DHT22;674;45.552;-122.600;2022-08-21T09:38:01;17.10;99.90
1361;DHT22;674;45.552;-122.600;2022-08-21T09:40:37;17.10;99.90
1361;DHT22;674;45.552;-122.600;2022-08-21T09:45:41;17.10;99.90
1361;DHT22;674;45.552;-122.600;2022-08-21T09:48:18;17.10;99.90
1361;DHT22;674;45.552;-122.600;2022-08-21T09:50:47;17.10;99.90
1361;DHT22;674;45.552;-122.600;2022-08-21T09:53:25;16.90;99.90
1361;DHT22;674;45.552;-122.600;2022-08-21T09:56:05;17.00;99.90
1361;DHT22;674;45.552;-122.600;2022-08-21T09:59:13;16.90;99.90
1361;DHT22;674;45.552;-122.600;2022-08-21T10:01:45;16.90;99.90
1361;DHT22;674;45.552;-122.600;2022-08-21T10:04:14;16.90;99.90
1361;DHT22;674;45.552;-122.600;2022-08-21T10:06:43;16.90;99.90
1361;DHT22;674;45.552;-122.600;2022-08-21T10:09:14;16.90;99.90
1361;DHT22;674;45.552;-122.600;2022-08-21T10:12:12;16.80;99.90
1361;DHT22;674;45.552;-122.600;2022-08-21T10:30:08;16.70;99.90
1361;DHT22;674;45.552;-122.600;2022-08-21T10:32:53;16.60;99.90
1361;DHT22;674;45.552;-122.600;2022-08-21T10:35:33;16.60;99.90
1361;DHT22;674;45.552;-122.600;2022-08-21T10:38:26;16.70;99.90
1361;DHT22;674;45.552;-122.600;2022-08-21T10:55:56;16.40;99.90
1361;DHT22;674;45.552;-122.600;2022-08-21T10:58:34;16.40;99.90
1361;DHT22;674;45.552;-122.600;2022-08-21T11:01:13;16.40;99.90
1361;DHT22;674;45.552;-122.600;2022-08-21T11:03:52;16.30;99.90
1361;DHT22;674;45.552;-122.600;2022-08-21T11:06:28;16.40;99.90
1361;DHT22;674;45.552;-122.600;2022-08-21T11:09:12;16.30;99.90
1361;DHT22;674;45.552;-122.600;2022-08-21T11:11:50;16.40;99.90
1361;DHT22;674;45.552;-122.600;2022-08-21T11:17:20;16.30;99.90
1361;DHT22;674;45.552;-122.600;2022-08-21T11:20:13;16.20;99.90
1361;DHT22;674;45.552;-122.600;2022-08-21T11:23:25;16.30;99.90
1361;DHT22;674;45.552;-122.600;2022-08-21T11:26:05;16.40;99.90
1361;DHT22;674;45.552;-122.600;2022-08-21T11:29:00;16.30;99.90
1361;DHT22;674;45.552;-122.600;2022-08-21T11:45:25;16.10;99.90
1361;DHT22;674;45.552;-122.600;2022-08-21T11:48:28;16.10;99.90
1361;DHT22;674;45.552;-122.600;2022-08-21T11:50:58;16.00;99.90
1361;DHT22;674;45.552;-122.600;2022-08-21T11:56:41;16.00;99.90
1361;DHT22;674;45.552;-122.600;2022-08-21T11:59:22;15.90;99.90
1361;DHT22;674;45.552;-122.600;2022-08-21T12:01:52;15.90;99.90
1361;DHT22;674;45.552;-122.600;2022-08-21T12:04:32;15.90;99.90
1361;DHT22;674;45.552;-122.600;2022-08-21T12:10:03;16.00;99.90
1361;DHT22;674;45.552;-122.600;2022-08-21T12:12:36;16.00;99.90
1361;DHT22;674;45.552;-122.600;2022-08-21T12:18:00;16.10;99.90
1361;DHT22;674;45.552;-122.600;2022-08-21T12:20:35;16.10;99.90
1361;DHT22;674;45.552;-122.600;2022-08-21T12:23:30;16.20;99.90
1361;DHT22;674;45.552;-122.600;2022-08-21T12:26:29;16.10;99.90
1361;DHT22;674;45.552;-122.600;2022-08-21T12:29:12;16.10;99.90
1361;DHT22;674;45.552;-122.600;2022-08-21T12:32:01;16.00;99.90
1361;DHT22;674;45.552;-122.600;2022-08-21T12:34:36;16.00;99.90
1361;DHT22;674;45.552;-122.600;2022-08-21T12:39:51;15.90;99.90
1361;DHT22;674;45.552;-122.600;2022-08-21T12:42:24;15.80;99.90
1361;DHT22;674;45.552;-122.600;2022-08-21T12:45:07;15.70;99.90
1361;DHT22;674;45.552;-122.600;2022-08-21T12:47:54;15.70;99.90
1361;DHT22;674;45.552;-122.600;2022-08-21T12:50:40;15.60;99.90
1361;DHT22;674;45.552;-122.600;2022-08-21T12:56:08;15.60;99.90
1361;DHT22;674;45.552;-122.600;2022-08-21T12:58:40;15.60;99.90
1361;DHT22;674;45.552;-122.600;2022-08-21T13:01:18;15.60;99.90
1361;DHT22;674;45.552;-122.600;2022-08-21T13:03:48;15.60;99.90
1361;DHT22;674;45.552;-122.600;2022-08-21T13:06:37;15.50;99.90
1361;DHT22;674;45.552;-122.600;2022-08-21T13:09:09;15.40;99.90
1361;DHT22;674;45.552;-122.600;2022-08-21T13:11:41;15.40;99.90
1361;DHT22;674;45.552;-122.600;2022-08-21T13:14:38;15.40;99.90
1361;DHT22;674;45.552;-122.600;2022-08-21T13:17:17;15.50;99.90
1361;DHT22;674;45.552;-122.600;2022-08-21T13:20:00;15.40;99.90
1361;DHT22;674;45.552;-122.600;2022-08-21T13:22:29;15.40;99.90
1361;DHT22;674;45.552;-122.600;2022-08-21T13:25:02;15.50;99.90
1361;DHT22;674;45.552;-122.600;2022-08-21T13:27:33;15.40;99.90
1361;DHT22;674;45.552;-122.600;2022-08-21T13:30:13;15.50;99.90
1361;DHT22;674;45.552;-122.600;2022-08-21T13:32:47;15.60;99.90
1361;DHT22;674;45.552;-122.600;2022-08-21T13:35:23;15.70;99.90
1361;DHT22;674;45.552;-122.600;2022-08-21T13:37:54;15.70;99.90
1361;DHT22;674;45.552;-122.600;2022-08-21T13:40:32;15.80;99.90
1361;DHT22;674;45.552;-122.600;2022-08-21T13:43:16;15.90;99.90
1361;DHT22;674;45.552;-122.600;2022-08-21T13:45:53;15.90;99.90
1361;DHT22;674;45.552;-122.600;2022-08-21T13:48:27;16.00;99.90
1361;DHT22;674;45.552;-122.600;2022-08-21T13:50:58;16.20;99.90
1361;DHT22;674;45.552;-122.600;2022-08-21T13:53:36;16.20;99.90
1361;DHT22;674;45.552;-122.600;2022-08-21T13:56:05;16.10;99.90
1361;DHT22;674;45.552;-122.600;2022-08-21T13:58:45;16.20;99.90
1361;DHT22;674;45.552;-122.600;2022-08-21T14:01:32;16.40;99.90
1361;DHT22;674;45.552;-122.600;2022-08-21T14:04:06;16.60;99.90
1361;DHT22;674;45.552;-122.600;2022-08-21T14:06:37;16.70;99.90
1361;DHT22;674;45.552;-122.600;2022-08-21T14:09:21;16.90;99.90
1361;DHT22;674;45.552;-122.600;2022-08-21T14:11:51;17.00;99.90
1361;DHT22;674;45.552;-122.600;2022-08-21T14:14:32;17.20;99.90
1361;DHT22;674;45.552;-122.600;2022-08-21T14:17:05;17.40;99.90
1361;DHT22;674;45.552;-122.600;2022-08-21T14:19:50;17.50;99.90
1361;DHT22;674;45.552;-122.600;2022-08-21T14:22:41;17.70;99.90
1361;DHT22;674;45.552;-122.600;2022-08-21T14:27:53;17.80;99.90
1361;DHT22;674;45.552;-122.600;2022-08-21T14:30:29;18.10;99.90
1361;DHT22;674;45.552;-122.600;2022-08-21T14:33:00;18.30;99.90
1361;DHT22;674;45.552;-122.600;2022-08-21T14:35:29;18.50;99.90
1361;DHT22;674;45.552;-122.600;2022-08-21T14:37:58;18.60;99.90
1361;DHT22;674;45.552;-122.600;2022-08-21T14:40:27;18.70;99.90
1361;DHT22;674;45.552;-122.600;2022-08-21T14:42:55;18.80;99.90
1361;DHT22;674;45.552;-122.600;2022-08-21T14:45:28;18.90;99.90
1361;DHT22;674;45.552;-122.600;2022-08-21T14:47:57;18.80;99.90
1361;DHT22;674;45.552;-122.600;2022-08-21T14:50:27;18.90;99.90
1361;DHT22;674;45.552;-122.600;2022-08-21T14:52:55;18.70;99.90
1361;DHT22;674;45.552;-122.600;2022-08-21T14:55:24;18.50;99.90
1361;DHT22;674;45.552;-122.600;2022-08-21T14:57:55;18.40;99.90
1361;DHT22;674;45.552;-122.600;2022-08-21T15:00:25;18.50;99.90
1361;DHT22;674;45.552;-122.600;2022-08-21T15:03:03;18.60;99.90
1361;DHT22;674;45.552;-122.600;2022-08-21T15:05:31;18.60;99.90
1361;DHT22;674;45.552;-122.600;2022-08-21T15:08:00;18.50;99.90
1361;DHT22;674;45.552;-122.600;2022-08-21T15:10:30;18.70;99.90
1361;DHT22;674;45.552;-122.600;2022-08-21T15:13:01;18.80;99.90
1361;DHT22;674;45.552;-122.600;2022-08-21T15:15:34;19.00;99.90
1361;DHT22;674;45.552;-122.600;2022-08-21T15:18:03;19.20;99.90
1361;DHT22;674;45.552;-122.600;2022-08-21T15:20:32;19.40;99.90
1361;DHT22;674;45.552;-122.600;2022-08-21T15:23:00;19.20;99.90
1361;DHT22;674;45.552;-122.600;2022-08-21T15:25:29;19.20;99.90
1361;DHT22;674;45.552;-122.600;2022-08-21T15:27:58;19.40;99.90
1361;DHT22;674;45.552;-122.600;2022-08-21T15:30:29;19.00;99.90
1361;DHT22;674;45.552;-122.600;2022-08-21T15:32:58;19.20;99.90
1361;DHT22;674;45.552;-122.600;2022-08-21T15:35:26;19.50;99.90
1361;DHT22;674;45.552;-122.600;2022-08-21T15:37:55;19.50;99.90
1361;DHT22;674;45.552;-122.600;2022-08-21T15:40:24;19.50;99.90
1361;DHT22;674;45.552;-122.600;2022-08-21T15:42:59;19.70;99.90
1361;DHT22;674;45.552;-122.600;2022-08-21T15:45:28;19.60;99.90
1361;DHT22;674;45.552;-122.600;2022-08-21T15:47:57;19.90;99.90
1361;DHT22;674;45.552;-122.600;2022-08-21T15:50:29;20.00;99.90
1361;DHT22;674;45.552;-122.600;2022-08-21T15:52:59;20.00;99.90
1361;DHT22;674;45.552;-122.600;2022-08-21T15:55:28;20.10;99.90
1361;DHT22;674;45.552;-122.600;2022-08-21T15:57:56;20.30;99.90
1361;DHT22;674;45.552;-122.600;2022-08-21T16:00:31;20.50;84.90
1361;DHT22;674;45.552;-122.600;2022-08-21T16:03:04;20.90;91.00
1361;DHT22;674;45.552;-122.600;2022-08-21T16:05:34;21.40;73.00
1361;DHT22;674;45.552;-122.600;2022-08-21T16:08:02;22.60;15.50
1361;DHT22;674;45.552;-122.600;2022-08-21T16:10:32;23.50;1.00
1361;DHT22;674;45.552;-122.600;2022-08-21T16:13:10;24.70;1.00
1361;DHT22;674;45.552;-122.600;2022-08-21T16:15:39;25.20;1.00
1361;DHT22;674;45.552;-122.600;2022-08-21T16:18:08;25.90;1.00
1361;DHT22;674;45.552;-122.600;2022-08-21T16:20:37;26.70;1.00
1361;DHT22;674;45.552;-122.600;2022-08-21T16:23:05;27.60;1.00
1361;DHT22;674;45.552;-122.600;2022-08-21T16:25:36;28.50;1.00
1361;DHT22;674;45.552;-122.600;2022-08-21T16:28:08;29.50;1.00
1361;DHT22;674;45.552;-122.600;2022-08-21T16:30:40;29.40;1.00
1361;DHT22;674;45.552;-122.600;2022-08-21T16:33:19;29.10;1.00
1361;DHT22;674;45.552;-122.600;2022-08-21T16:35:48;29.40;1.00
1361;DHT22;674;45.552;-122.600;2022-08-21T16:38:17;28.80;1.00
1361;DHT22;674;45.552;-122.600;2022-08-21T16:40:45;28.90;1.00
1361;DHT22;674;45.552;-122.600;2022-08-21T16:43:14;29.10;1.00
1361;DHT22;674;45.552;-122.600;2022-08-21T16:45:43;30.10;1.00
1361;DHT22;674;45.552;-122.600;2022-08-21T16:48:11;30.80;1.00
1361;DHT22;674;45.552;-122.600;2022-08-21T16:50:40;31.90;1.00
1361;DHT22;674;45.552;-122.600;2022-08-21T16:53:08;31.80;1.00
1361;DHT22;674;45.552;-122.600;2022-08-21T16:55:37;31.40;1.00
1361;DHT22;674;45.552;-122.600;2022-08-21T16:58:13;29.90;1.00
1361;DHT22;674;45.552;-122.600;2022-08-21T17:00:43;29.40;1.00
1361;DHT22;674;45.552;-122.600;2022-08-21T17:03:15;28.30;1.00
1361;DHT22;674;45.552;-122.600;2022-08-21T17:05:44;27.50;1.00
1361;DHT22;674;45.552;-122.600;2022-08-21T17:08:12;27.30;1.00
1361;DHT22;674;45.552;-122.600;2022-08-21T17:10:46;26.50;1.00
1361;DHT22;674;45.552;-122.600;2022-08-21T17:13:15;27.70;1.00
1361;DHT22;674;45.552;-122.600;2022-08-21T17:15:44;28.20;1.00
1361;DHT22;674;45.552;-122.600;2022-08-21T17:18:16;27.90;1.00
1361;DHT22;674;45.552;-122.600;2022-08-21T17:20:46;28.90;1.00
1361;DHT22;674;45.552;-122.600;2022-08-21T17:23:17;28.70;1.00
1361;DHT22;674;45.552;-122.600;2022-08-21T17:25:50;28.60;1.00
1361;DHT22;674;45.552;-122.600;2022-08-21T17:28:28;28.80;1.00
1361;DHT22;674;45.552;-122.600;2022-08-21T17:30:58;29.00;1.00